Flight Track Log - Related Links

Times and Time Zones

All times are in EDT time to prevent confusion due to time zone crossing. See the UPS1121 flight status page for this flight to view local times or setup timezone preferences in your user account.

Time Position Orientation Groundspeed Altitude Reporting Facility
EDT Latitude Longitude Course Direction KTS MPH feet Rate Location/Type
Mon 09:59:11 PM 41.9458 -72.7081 279° West 157 181 1,400  Level Boston Center
Mon 09:59:29 PM 41.9478 -72.7247 279° West 160 184 1,700 1,953 Climbing Boston Center
Mon 10:00:37 PM 41.9039 -72.7303 185° South 207 238 4,200 2,457 Climbing Boston Center
Mon 10:06:12 PM 41.4900 -72.3580 185° South 395 455 18,200 2,479 Climbing FlightAware ADS-B
Mon 10:06:57 PM 41.4130 -72.3890 197° South 395 455 19,900 1,271 Climbing FlightAware ADS-B
Mon 10:07:37 PM 41.3560 -72.4340 211° Southwest 395 455 20,000 67 Climbing FlightAware ADS-B
Mon 10:08:27 PM 41.2770 -72.4960 211° Southwest 393 452 20,000  Level FlightAware ADS-B
Mon 10:09:17 PM 41.2100 -72.5480 210° Southwest 393 452 20,000  Level FlightAware ADS-B
Mon 10:09:57 PM 41.1300 -72.6110 211° Southwest 396 456 20,000  Level FlightAware ADS-B
Mon 10:10:37 PM 41.0690 -72.6580 210° Southwest 396 456 20,000  Level FlightAware ADS-B
Mon 10:11:22 PM 40.9920 -72.7180 210° Southwest 396 456 20,000  Level FlightAware ADS-B
Mon 10:12:02 PM 40.9300 -72.7660 210° Southwest 387 445 20,000  Level FlightAware ADS-B
Mon 10:12:11 PM 40.9129 -72.7786 209° Southwest 386 444 20,000  Level FlightAware ADS-B
Mon 10:12:45 PM 40.8605 -72.8187 210° Southwest 385 443 20,000  Level FlightAware ADS-B
Mon 10:13:15 PM 40.8133 -72.8547 210° Southwest 385 443 20,000  Level FlightAware ADS-B
Mon 10:13:48 PM 40.7622 -72.8938 210° Southwest 385 443 20,000  Level FlightAware ADS-B
Mon 10:14:20 PM 40.7130 -72.9315 210° Southwest 384 442 20,000  Level FlightAware ADS-B
Mon 10:14:51 PM 40.6655 -72.9678 210° Southwest 383 441 20,000  Level FlightAware ADS-B
Mon 10:15:22 PM 40.6193 -73.0031 210° Southwest 382 440 20,000  Level FlightAware ADS-B
Mon 10:15:54 PM 40.5695 -73.0410 210° Southwest 383 441 20,000  Level FlightAware ADS-B
Mon 10:16:26 PM 40.5211 -73.0777 210° Southwest 383 441 20,000  Level FlightAware ADS-B
Mon 10:16:58 PM 40.4720 -73.1150 210° Southwest 383 441 20,000  Level FlightAware ADS-B
Mon 10:17:30 PM 40.4233 -73.1519 210° Southwest 384 442 20,000  Level FlightAware ADS-B
Mon 10:18:04 PM 40.3708 -73.1917 210° Southwest 384 442 20,000  Level FlightAware ADS-B
Mon 10:18:35 PM 40.3230 -73.2277 210° Southwest 384 442 20,000  Level FlightAware ADS-B
Mon 10:19:06 PM 40.2754 -73.2634 210° Southwest 386 444 20,000  Level FlightAware ADS-B
Mon 10:19:36 PM 40.2280 -73.2990 210° Southwest 387 445 20,000  Level FlightAware ADS-B
Mon 10:20:07 PM 40.1796 -73.3355 210° Southwest 389 448 20,000  Level FlightAware ADS-B
Mon 10:20:38 PM 40.1328 -73.3706 210° Southwest 390 449 20,000  Level FlightAware ADS-B
Mon 10:21:08 PM 40.0844 -73.4067 210° Southwest 390 449 20,000  Level FlightAware ADS-B
Mon 10:21:39 PM 40.0373 -73.4420 210° Southwest 388 447 20,000  Level FlightAware ADS-B
Mon 10:22:10 PM 39.9890 -73.4780 210° Southwest 388 447 20,000  Level FlightAware ADS-B
Mon 10:22:40 PM 39.9413 -73.5135 210° Southwest 388 447 20,000  Level FlightAware ADS-B
Mon 10:22:51 PM 39.9250 -73.5264 211° Southwest 388 447 20,000  Level FlightAware ADS-B
Mon 10:23:09 PM 39.8999 -73.5519 218° Southwest 388 447 20,000  Level FlightAware ADS-B
Mon 10:23:20 PM 39.8853 -73.5705 224° Southwest 388 447 20,000  Level FlightAware ADS-B
Mon 10:23:51 PM 39.8498 -73.6262 230° Southwest 389 448 20,000  Level FlightAware ADS-B
Mon 10:24:23 PM 39.8134 -73.6839 231° Southwest 388 447 20,000  Level FlightAware ADS-B
Mon 10:24:54 PM 39.7780 -73.7402 231° Southwest 389 448 20,000  Level FlightAware ADS-B
Mon 10:25:26 PM 39.7422 -73.7967 231° Southwest 389 448 20,000 -97 Level FlightAware ADS-B
Mon 10:25:56 PM 39.7077 -73.8511 231° Southwest 376 433 19,900 -984 Descending FlightAware ADS-B
Mon 10:26:27 PM 39.6743 -73.9034 230° Southwest 369 425 19,000 -1,967 Descending FlightAware ADS-B
Mon 10:26:57 PM 39.6416 -73.9548 230° Southwest 369 425 17,900 -2,459 Descending FlightAware ADS-B
Mon 10:27:28 PM 39.6072 -74.0086 230° Southwest 373 429 16,500 -2,419 Descending FlightAware ADS-B
Mon 10:27:59 PM 39.5744 -74.0599 230° Southwest 364 419 15,400 -2,105 Descending FlightAware ADS-B
Mon 10:28:25 PM 39.5460 -74.1044 230° Southwest 361 415 14,500 -2,000 Descending FlightAware ADS-B
Mon 10:28:38 PM 39.5355 -74.1267 239° Southwest 358 412 14,100 -1,875 Descending FlightAware ADS-B
Mon 10:28:41 PM 39.5334 -74.1325 245° Southwest 356 410 14,000 -1,714 Descending FlightAware ADS-B
Mon 10:28:45 PM 39.5310 -74.1404 249° West 357 411 13,900 -706 Descending FlightAware ADS-B
Mon 10:28:58 PM 39.5261 -74.1682 257° West 356 410 13,800 -286 Descending FlightAware ADS-B
Mon 10:29:06 PM 39.5253 -74.1860 267° West 356 410 13,800  Level FlightAware ADS-B
Mon 10:29:29 PM 39.5256 -74.2350 270° West 358 412 13,800  Level FlightAware ADS-B
Mon 10:30:00 PM 39.5271 -74.3011 272° West 360 414 13,800 -667 Level FlightAware ADS-B
Mon 10:30:32 PM 39.5284 -74.3676 271° West 349 402 13,100 -1,545 Descending FlightAware ADS-B
Mon 10:31:06 PM 39.5297 -74.4378 271° West 341 392 12,100 -1,857 Descending FlightAware ADS-B
Mon 10:31:56 PM 39.5312 -74.5390 271° West 335 386 10,500 -1,615 Descending FlightAware ADS-B
Mon 10:32:24 PM 39.5320 -74.5936 271° West 321 369 10,000 -837 Descending FlightAware ADS-B
Mon 10:32:39 PM 39.5325 -74.6229 271° West 308 354 9,900 -400 Descending FlightAware ADS-B
Mon 10:32:54 PM 39.5330 -74.6498 271° West 297 342 9,800 -581 Descending FlightAware ADS-B
Mon 10:33:10 PM 39.5334 -74.6767 271° West 290 334 9,600 -774 Descending FlightAware ADS-B
Mon 10:33:25 PM 39.5338 -74.7030 271° West 282 325 9,400 -1,400 Descending FlightAware ADS-B
Mon 10:33:40 PM 39.5343 -74.7279 271° West 277 319 8,900 -1,200 Descending FlightAware ADS-B
Mon 10:33:55 PM 39.5346 -74.7530 271° West 278 320 8,800 -194 Descending FlightAware ADS-B
Mon 10:34:11 PM 39.5349 -74.7790 271° West 278 320 8,800  Level FlightAware ADS-B
Mon 10:34:26 PM 39.5352 -74.8054 271° West 279 321 8,800  Level FlightAware ADS-B
Mon 10:34:42 PM 39.5356 -74.8308 271° West 279 321 8,800  Level FlightAware ADS-B
Mon 10:34:58 PM 39.5360 -74.8576 271° West 279 321 8,800  Level FlightAware ADS-B
Mon 10:35:13 PM 39.5365 -74.8831 271° West 280 322 8,800  Level FlightAware ADS-B
Mon 10:35:30 PM 39.5370 -74.9116 271° West 278 320 8,800  Level FlightAware ADS-B
Mon 10:35:46 PM 39.5375 -74.9379 271° West 276 318 8,800 -353 Level FlightAware ADS-B
Mon 10:36:04 PM 39.5385 -74.9684 272° West 273 314 8,600 -1,091 Descending FlightAware ADS-B
Mon 10:36:19 PM 39.5401 -74.9928 275° West 274 315 8,200 -1,400 Descending FlightAware ADS-B
Mon 10:36:34 PM 39.5420 -75.0182 276° West 275 316 7,900 -1,355 Descending FlightAware ADS-B
Mon 10:36:50 PM 39.5441 -75.0441 276° West 278 320 7,500 -1,548 Descending FlightAware ADS-B
Mon 10:37:05 PM 39.5461 -75.0692 276° West 281 323 7,100 -1,459 Descending FlightAware ADS-B
Mon 10:37:27 PM 39.5490 -75.1067 276° West 277 319 6,600 -1,459 Descending FlightAware ADS-B
Mon 10:37:42 PM 39.5510 -75.1318 276° West 276 318 6,200 -1,400 Descending FlightAware ADS-B
Mon 10:37:57 PM 39.5529 -75.1564 276° West 274 315 5,900 -1,448 Descending FlightAware ADS-B
Mon 10:38:11 PM 39.5546 -75.1784 276° West 275 316 5,500 -1,714 Descending FlightAware ADS-B
Mon 10:38:32 PM 39.5571 -75.2128 275° West 277 319 4,900 -1,833 Descending FlightAware ADS-B
Mon 10:38:47 PM 39.5588 -75.2385 275° West 279 321 4,400 -1,800 Descending FlightAware ADS-B
Mon 10:39:02 PM 39.5606 -75.2632 275° West 282 325 4,000 -1,895 Descending FlightAware ADS-B
Mon 10:39:06 PM 39.5615 -75.2709 279° West 285 328 3,800 -2,000 Descending FlightAware ADS-B
Mon 10:39:11 PM 39.5630 -75.2778 286° West 287 330 3,700 -1,333 Descending FlightAware ADS-B
Mon 10:39:15 PM 39.5653 -75.2849 293° West 289 333 3,600 -1,500 Descending FlightAware ADS-B
Mon 10:39:19 PM 39.5680 -75.2912 299° West 291 335 3,500 -1,333 Descending FlightAware ADS-B
Mon 10:39:24 PM 39.5716 -75.2972 308° West 291 335 3,400 -1,500 Descending FlightAware ADS-B
Mon 10:39:27 PM 39.5745 -75.3013 313° West 291 335 3,300 -2,000 Descending FlightAware ADS-B
Mon 10:39:30 PM 39.5778 -75.3050 319° Northwest 290 334 3,200 -1,714 Descending FlightAware ADS-B
Mon 10:39:34 PM 39.5818 -75.3085 326° Northwest 289 333 3,100 -1,333 Descending FlightAware ADS-B
Mon 10:39:39 PM 39.5884 -75.3128 333° Northwest 285 328 3,000 -857 Descending FlightAware ADS-B
Mon 10:39:48 PM 39.5994 -75.3183 339° North 280 322 2,900 -462 Descending FlightAware ADS-B
Mon 10:40:05 PM 39.6199 -75.3270 342° North 276 318 2,800 -188 Descending FlightAware ADS-B
Mon 10:40:20 PM 39.6383 -75.3348 342° North 276 318 2,800 -200 Level FlightAware ADS-B
Mon 10:40:35 PM 39.6567 -75.3428 341° North 275 316 2,700 -938 Descending FlightAware ADS-B
Mon 10:40:52 PM 39.6767 -75.3517 341° North 272 313 2,300 -1,364 Descending FlightAware ADS-B
Mon 10:40:57 PM 39.6819 -75.3541 340° North 272 313 2,200 -1,200 Descending FlightAware ADS-B
Mon 10:41:02 PM 39.6884 -75.3575 338° Northwest 273 314 2,100 -1,333 Descending FlightAware ADS-B
Mon 10:41:06 PM 39.6923 -75.3602 332° Northwest 273 314 2,000 -1,200 Descending FlightAware ADS-B
Mon 10:41:12 PM 39.6991 -75.3658 328° Northwest 272 313 1,900 -545 Descending FlightAware ADS-B
Mon 10:41:28 PM 39.7138 -75.3802 323° Northwest 249 287 1,800 -194 Descending FlightAware ADS-B
Mon 10:41:43 PM 39.7267 -75.3931 322° Northwest 225 259 1,800  Level FlightAware ADS-B
Mon 10:41:59 PM 39.7386 -75.4052 322° Northwest 204 235 1,800  Level FlightAware ADS-B
Mon 10:42:14 PM 39.7497 -75.4164 322° Northwest 191 220 1,800  Level FlightAware ADS-B
Mon 10:42:29 PM 39.7601 -75.4270 322° Northwest 188 216 1,800  Level FlightAware ADS-B

Login

Don't have an account? Register now (free) for customized features, flight alerts, and more!